Tiempo atmosférico en la estación meteorológica de Telde, Melenara, Las Palmas (9 m.)



Fecha
DESCASC
Temp. máxima en grados centígrados (hora)
DESCASC
Temp. mínima en grados centígrados (hora)
DESCASC
Temp. media en grados centígrados
DESCASC
Racha de viento máxima en m/sg (hora)
DESCASC
Velocidad máxima media en intervalos de 10 minutos(hora)
DESCASC
Precipitaciones diarias en mm
DESCASC
Precipitaciones de 00:00 a 06:00 en mm
DESCASC
Precipitaciones de 06:00 a 12:00 en mm
DESCASC
Precipitaciones de 12:00 a 18:00 en mm
DESCASC
Precipitaciones de 18:00 a 24:00 en mm
DESCASC
25-02-2021 20.8 (12:50) 16.8 (23:40) 18.8 12.22 (15:00) 7.5 (14:30) 0 0 0 0 0
24-02-2021 21.8 (13:20) 15.9 (07:50) 18.8 10.28 (12:40) 6.39 (15:00) 0 0 0 0 0
23-02-2021 21.2 (12:10) 15.8 (07:00) 18.5 6.94 (13:20) 4.72 (13:20) 0 0 0 0 0
22-02-2021 20.8 (16:30) 14 (05:20) 17.4 6.11 (21:10) 3.61 (19:20) 0 0 0 0 0
21-02-2021 21.1 (12:30) 15.8 (00:00) 18.5 12.22 (00:40) 6.94 (00:50) 0.2 0.2 0 0 0
20-02-2021 22.1 (14:10) 11.7 (00:00) 16.9 11.11 (23:50) 5.83 (23:50) 0 0 0 0 0
19-02-2021 21.7 (15:40) 12.4 (00:00) 17.1 5 (12:30) 3.89 (02:50) 0 0 0 0 0
18-02-2021 21 (13:20) 13.4 (00:00) 17.2 6.11 (15:50) 4.44 (01:40) 0 0 0 0 0
17-02-2021 20.8 (12:50) 13.6 (00:00) 17.2 6.39 (11:30) 3.61 (21:50) 0 0 0 0 0
16-02-2021 22 (12:00) 16.1 (00:00) 19.1 6.39 (14:50) 3.89 (21:00) 0 0 0 0 0
15-02-2021 24.3 (16:30) 14.6 (00:00) 19.4 5.83 (00:30) 3.33 (00:30) 0 0 0 0 0
14-02-2021 20.2 (14:40) 15.8 (00:00) 18 7.78 (10:00) 5 (13:40) 0 0 0 0 0
13-02-2021 21.4 (13:30) 17 (00:00) 19.2 10.28 (15:30) 6.39 (14:40) 0 0 0 0 0
12-02-2021 21.1 (12:20) 16.5 (00:00) 18.8 8.89 (13:20) 5.56 (13:00) 0.8 0.6 0.2 0 0
11-02-2021 21.1 (13:10) 12.4 (00:00) 16.8 8.89 (15:00) 5.83 (14:00) 0 0 0 0 0
10-02-2021 20.8 (12:30) 12.6 (00:00) 16.7 5.56 (12:20) 3.89 (12:20) 0 0 0 0 0
09-02-2021 21.2 (13:50) 13.4 (00:00) 17.3 6.11 (11:10) 4.17 (13:40) 0 0 0 0 0
08-02-2021 20.6 (15:10) 15.9 (00:00) 18.3 8.89 (13:00) 5.28 (12:50) 0 0 0 0 0
07-02-2021 20.3 (15:10) 13.8 (00:00) 17 9.17 (16:40) 5.56 (14:50) 0 0 0 0 0
06-02-2021 19.9 (13:50) 12.9 (00:00) 16.4 12.5 (07:30) 7.78 (13:30) 2.6 2 0.2 0.2 0.2
05-02-2021 17 (10:30) 12.6 (00:00) 14.8 12.22 (14:50) 7.5 (14:50) 6.2 0 1.8 3 1.4
04-02-2021 17.9 (15:10) 13.1 (00:00) 15.5 11.94 (16:10) 6.11 (19:10) 4 0 0 3.6 0.4
03-02-2021 20 (13:40) 15.1 (00:00) 17.6 7.78 (15:10) 5 (15:00) 0 0 0 0 0
02-02-2021 20.4 (14:50) 17.4 (00:00) 18.9 8.33 (03:10) 4.72 (03:00) 0 0 0 0 0
01-02-2021 22.6 (13:30) 17.7 (00:00) 20.2 9.72 (10:00) 6.39 (17:00) 0 0 0 0 0
31-01-2021 21.5 (15:00) 16.7 (00:00) 19.1 13.33 (17:10) 7.78 (17:40) 1.2 1 0.2 0 0
30-01-2021 20.8 (11:40) 14.8 (00:00) 17.8 11.39 (02:20) 7.22 (01:50) 0 0 0 0 0

Gráficas

Temp. máximas Temp. mínimas Temp. medias Precipitaciones Rachas de viento máximas Velocidades máximas media en intervalos de 10 minutos

Datos horarios

Fecha y hora oficial Temperatura (ºC) Velocidad del viento (km/h) Dirección del viento Racha (km/h) Dirección de racha Precipitación (mm) Presión (hPa) Tendencia (hPa) Humedad (%)
2021-02-28 23:00:00 16.3 12 Noroeste 19 Noroeste 0 -- -- 70
2021-02-28 22:00:00 16.7 11 Noroeste 27 Noroeste 0 -- -- 68
2021-02-28 21:00:00 17 10 Noroeste 22 Noroeste 0 -- -- 70
2021-02-28 20:00:00 17.2 15 Noroeste 28 Noroeste 0 -- -- 64
2021-02-28 19:00:00 17.8 12 Noroeste 26 Noroeste 0 -- -- 65
2021-02-28 18:00:00 19.1 16 Noroeste 31 Norte 0 -- -- 55
2021-02-28 17:00:00 20.2 15 Norte 32 Norte 0 -- -- 53
2021-02-28 16:00:00 19 16 Norte 31 Noroeste 0 -- -- 58
2021-02-28 15:00:00 19.7 17 Norte 32 Norte 0 -- -- 58
2021-02-28 14:00:00 18.8 15 Norte 29 Norte 0 -- -- 61
2021-02-28 13:00:00 19.2 17 Norte 30 Nordeste 0 -- -- 63
2021-02-28 12:00:00 18.1 19 Nordeste 31 Nordeste 0 -- -- 74
2021-02-28 11:00:00 17.8 11 Norte 28 Norte 1 -- -- 74
2021-02-28 10:00:00 17.1 12 Norte 23 Norte 0.6 -- -- 74
2021-02-28 09:00:00 16.5 14 Noroeste 26 Noroeste 0 -- -- 77
2021-02-28 08:00:00 15.3 12 Noroeste 30 Noroeste 0 -- -- 74
2021-02-28 07:00:00 15.2 18 Noroeste 29 Noroeste 0 -- -- 75
2021-02-28 06:00:00 14.9 16 Noroeste 31 Noroeste 0 -- -- 78
2021-02-28 05:00:00 14.8 19 Noroeste 30 Noroeste 0 -- -- 78
2021-02-28 04:00:00 14.9 19 Noroeste 31 Noroeste 1 -- -- 80
2021-02-28 03:00:00 15.8 12 Noroeste 30 Noroeste 0 -- -- 72
2021-02-28 02:00:00 15.5 20 Noroeste 33 Noroeste 0 -- -- 71
2021-02-28 01:00:00 15.4 19 Noroeste 28 Noroeste 0 -- -- 70
2021-02-28 00:00:00 15.1 16 Noroeste 32 Noroeste 0 -- -- 70
2021-02-27 23:00:00 15.9 19 Noroeste 31 Noroeste 0 -- -- 67
2021-02-27 22:00:00 15.5 15 Noroeste 27 Noroeste 0 -- -- 61
2021-02-27 21:00:00 15.8 17 Noroeste 27 Noroeste 0 -- -- 58
2021-02-27 20:00:00 16 14 Noroeste 23 Noroeste 0 -- -- 59
2021-02-27 19:00:00 16.7 16 Noroeste 33 Norte 0 -- -- 52
2021-02-27 18:00:00 17.2 17 Norte 36 Norte 0 -- -- 59
2021-02-27 17:00:00 18.2 24 Noroeste 42 Noroeste 0 -- -- 57
2021-02-27 16:00:00 18.5 21 Noroeste 40 Noroeste 0 -- -- 53
2021-02-27 15:00:00 17.7 19 Noroeste 36 Norte 0 -- -- 58
2021-02-27 14:00:00 16.7 18 Norte 36 Norte 0.4 -- -- 69
2021-02-27 13:00:00 15.7 15 Norte 37 Norte 0.4 -- -- 73
2021-02-27 12:00:00 16.5 17 Norte 40 Noroeste 0 -- -- 70
2021-02-27 11:00:00 18 22 Noroeste 40 Norte 0 -- -- 59
2021-02-27 10:00:00 17.5 16 Norte 34 Norte 0 -- -- 50
2021-02-27 09:00:00 16.9 15 Norte 34 Norte 0 -- -- 48
2021-02-27 08:00:00 16.1 20 Norte 41 Norte 0 -- -- 51
2021-02-27 07:00:00 16.1 21 Norte 36 Norte 0 -- -- 53
2021-02-27 06:00:00 15.7 17 Norte 37 Noroeste 0 -- -- 51
2021-02-27 05:00:00 15.8 17 Noroeste 33 Norte 0 -- -- 54
2021-02-27 04:00:00 16.2 17 Norte 37 Norte 0 -- -- 57
2021-02-27 03:00:00 16.6 19 Norte 35 Noroeste 0 -- -- 60
2021-02-27 02:00:00 16.9 19 Norte 39 Norte 0 -- -- 62
2021-02-27 01:00:00 16.6 18 Norte 33 Norte 0 -- -- 67
2021-02-27 00:00:00 16.5 17 Norte 30 Norte 0 -- -- 68
2021-02-26 23:00:00 16.8 20 Norte 36 Norte 0 -- -- 63
2021-02-26 22:00:00 17.1 21 Norte 38 Nordeste 0 -- -- 59
2021-02-26 21:00:00 17.2 19 Norte 42 Norte 0 -- -- 60
2021-02-26 20:00:00 17.1 20 Norte 37 Noroeste 0 -- -- 64
2021-02-26 19:00:00 17.4 18 Norte 36 Norte 0 -- -- 59
2021-02-26 18:00:00 17.8 20 Norte 36 Norte 0 -- -- 58
2021-02-26 17:00:00 18.8 21 Norte 38 Norte 0 -- -- 52
2021-02-26 16:00:00 18.4 16 Norte 41 Norte 0 -- -- 56
2021-02-26 15:00:00 19.7 19 Norte 40 Norte 0 -- -- 50
2021-02-26 14:00:00 19.5 21 Norte 41 Nordeste 0 -- -- 52
2021-02-26 13:00:00 19.2 19 Norte 36 Norte 0 -- -- 56
2021-02-26 12:00:00 17.8 21 Norte 47 Norte 0 -- -- 56
2021-02-26 11:00:00 19.1 24 Norte 42 Norte 0 -- -- 53
2021-02-26 10:00:00 19.2 21 Norte 43 Norte 0 -- -- 51
2021-02-26 09:00:00 17.8 21 Norte 40 Norte 0 -- -- 56
2021-02-26 08:00:00 16.9 22 Norte 39 Noroeste 0 -- -- 60
2021-02-26 07:00:00 16.9 22 Norte 40 Noroeste 0 -- -- 58
2021-02-26 06:00:00 17 22 Norte 42 Norte 0 -- -- 60
2021-02-26 05:00:00 16.9 23 Norte 45 Norte 0 -- -- 55
2021-02-26 04:00:00 17 20 Norte 43 Noroeste 0 -- -- 63
2021-02-26 03:00:00 17 24 Norte 45 Norte 0 -- -- 56
2021-02-26 02:00:00 16.8 18 Norte 36 Norte 0 -- -- 56
2021-02-26 01:00:00 16.7 18 Norte 39 Norte 0 -- -- 54
2021-02-26 00:00:00 16.8 20 Norte 38 Norte 0 -- -- 55
2021-02-25 23:00:00 17.1 17 Norte 38 Norte 0 -- -- 58
2021-02-25 22:00:00 17.5 19 Norte 34 Norte 0 -- -- 57
2021-02-25 21:00:00 17.8 19 Norte 35 Norte 0 -- -- 64
2021-02-25 20:00:00 18.1 18 Norte 33 Norte 0 -- -- 66
2021-02-25 19:00:00 18.3 16 Norte 31 Norte 0 -- -- 63
2021-02-25 18:00:00 18.6 15 Norte 31 Norte 0 -- -- 67
2021-02-25 17:00:00 19 15 Norte 40 Norte 0 -- -- 67
2021-02-25 16:00:00 18.9 19 Norte 38 Norte 0 -- -- 67
2021-02-25 15:00:00 19.2 23 Nordeste 44 Nordeste 0 -- -- 71
2021-02-25 14:00:00 19.6 24 Nordeste 37 Nordeste 0 -- -- 73
2021-02-25 13:00:00 20.8 17 Norte 32 Nordeste 0 -- -- 66
2021-02-25 12:00:00 20.6 19 Norte 30 Nordeste 0 -- -- 64
2021-02-25 11:00:00 20.4 16 Norte 28 Nordeste 0 -- -- 64
2021-02-25 10:00:00 19.7 15 Norte 25 Nordeste 0 -- -- 67
2021-02-25 09:00:00 19.2 13 Norte 24 Norte 0 -- -- 68
2021-02-25 08:00:00 18 14 Norte 28 Norte 0 -- -- 72
2021-02-25 07:00:00 18 14 Norte 30 Norte 0 -- -- 73
2021-02-25 06:00:00 18.1 16 Norte 31 Norte 0 -- -- 74
2021-02-25 05:00:00 18.2 17 Norte 33 Norte 0 -- -- 73
2021-02-25 04:00:00 18.1 15 Norte 33 Norte 0 -- -- 75
2021-02-25 03:00:00 18.2 15 Norte 32 Norte 0 -- -- 76
2021-02-25 02:00:00 18.3 17 Norte 37 Norte 0 -- -- 74
2021-02-25 01:00:00 18.6 18 Norte 38 Norte 0 -- -- 74
2021-02-25 00:00:00 18.5 18 Norte 36 Norte 0 -- -- 75
2021-02-24 23:00:00 18.6 16 Norte 29 Noroeste 0 -- -- 76
2021-02-24 22:00:00 18.1 15 Noroeste 24 Noroeste 0 -- -- 73
2021-02-24 21:00:00 18.6 16 Norte 33 Norte 0 -- -- 73
2021-02-24 20:00:00 18.8 19 Norte 35 Norte 0 -- -- 73
2021-02-24 19:00:00 19 18 Norte 32 Norte 0 -- -- 74
2021-02-24 18:00:00 19.8 16 Norte 32 Norte 0 -- -- 69
2021-02-24 17:00:00 20.7 18 Norte 35 Norte 0 -- -- 66
2021-02-24 16:00:00 21.5 17 Norte 35 Noroeste 0 -- -- 65
2021-02-24 15:00:00 21.2 23 Norte 37 Nordeste 0 -- -- 65
2021-02-24 14:00:00 21.5 19 Norte 35 Nordeste 0 -- -- 64
2021-02-24 13:00:00 21.5 19 Norte 37 Norte 0 -- -- 64
2021-02-24 12:00:00 21.2 21 Norte 33 Noroeste 0 -- -- 65
2021-02-24 11:00:00 20.6 17 Norte 30 Norte 0 -- -- 66
2021-02-24 10:00:00 20 14 Norte 25 Norte 0 -- -- 68
2021-02-24 09:00:00 19.3 10 Norte 20 Norte 0 -- -- 72
2021-02-24 08:00:00 16.1 11 Noroeste 17 Noroeste 0 -- -- 76
2021-02-24 07:00:00 16.9 15 Noroeste 26 Noroeste 0 -- -- 76
2021-02-24 06:00:00 17.6 12 Norte 23 Noroeste 0 -- -- 75
2021-02-24 05:00:00 16.5 10 Noroeste 14 Noroeste 0 -- -- 76
2021-02-24 04:00:00 17 10 Noroeste 17 Noroeste 0 -- -- 73
2021-02-24 03:00:00 16.8 12 Noroeste 18 Noroeste 0 -- -- 75
2021-02-24 02:00:00 16.9 12 Noroeste 23 Noroeste 0 -- -- 76
2021-02-24 01:00:00 17.5 14 Noroeste 22 Noroeste 0 -- -- 74
2021-02-24 00:00:00 18.4 11 Norte 22 Norte 0 -- -- 71
2021-02-23 23:00:00 18.7 11 Norte 20 Norte 0 -- -- 71
2021-02-23 22:00:00 18.4 10 Norte 22 Norte 0 -- -- 70
2021-02-23 21:00:00 18.4 8 Norte 17 Nordeste 0 -- -- 72
2021-02-23 20:00:00 18.8 10 Norte 20 Nordeste 0 -- -- 69
2021-02-23 19:00:00 19.2 9 Norte 23 Norte 0 -- -- 66
2021-02-23 18:00:00 19.5 13 Norte 22 Nordeste 0 -- -- 65
2021-02-23 17:00:00 19.8 12 Nordeste 24 Nordeste 0 -- -- 70
2021-02-23 16:00:00 20 13 Nordeste 22 Norte 0 -- -- 70
2021-02-23 15:00:00 20.2 12 Nordeste 22 Nordeste 0 -- -- 69
2021-02-23 14:00:00 20.8 14 Nordeste 25 Norte 0 -- -- 66
2021-02-23 13:00:00 21.1 16 Nordeste 23 Norte 0 -- -- 63
2021-02-23 12:00:00 20.9 15 Nordeste 20 Nordeste 0 -- -- 64
2021-02-23 11:00:00 20.2 12 Norte 19 Norte 0 -- -- 67
2021-02-23 10:00:00 20.1 12 Nordeste 18 Nordeste 0 -- -- 66
2021-02-23 09:00:00 19.1 8 Nordeste 15 Norte 0 -- -- 74
2021-02-23 08:00:00 16.6 6 Noroeste 12 Noroeste 0 -- -- 81
2021-02-23 07:00:00 15.8 9 Noroeste 13 Noroeste 0 -- -- 80
2021-02-23 06:00:00 17 9 Noroeste 14 Noroeste 0 -- -- 77
2021-02-23 05:00:00 17 10 Noroeste 15 Noroeste 0 -- -- 77
2021-02-23 04:00:00 17 9 Noroeste 17 Noroeste 0 -- -- 77
2021-02-23 03:00:00 17.2 12 Noroeste 19 Noroeste 0 -- -- 77
2021-02-23 02:00:00 16.9 6 Noroeste 16 Noroeste 0 -- -- 77
2021-02-23 01:00:00 17.2 6 Noroeste 18 Noroeste 0 -- -- 75
2021-02-23 00:00:00 17.2 11 Noroeste 17 Noroeste 0 -- -- 75
2021-02-22 23:00:00 17.3 11 Noroeste 15 Noroeste 0 -- -- 74
2021-02-22 22:00:00 17.4 7 Noroeste 22 Norte 0 -- -- 71
2021-02-22 21:00:00 18.4 12 Norte 21 Norte 0 -- -- 68
2021-02-22 20:00:00 18.8 11 Norte 20 Norte 0 -- -- 65
2021-02-22 19:00:00 19.2 12 Norte 21 Nordeste 0 -- -- 65
2021-02-22 18:00:00 19.8 10 Norte 18 Nordeste 0 -- -- 62
2021-02-22 17:00:00 20.2 12 Nordeste 20 Nordeste 0 -- -- 59
2021-02-22 16:00:00 20.6 12 Nordeste 20 Este 0 -- -- 57
2021-02-22 15:00:00 20.7 11 Este 17 Este 0 -- -- 57
2021-02-22 14:00:00 20.3 8 Este 14 Este 0 -- -- 58
2021-02-22 13:00:00 20.7 9 Este 15 Este 0 -- -- 58
2021-02-22 12:00:00 20.4 11 Este 15 Este 0 -- -- 60
2021-02-22 11:00:00 19.9 9 Nordeste 14 Nordeste 0 -- -- 62
2021-02-22 10:00:00 19.4 5 Nordeste 10 Nordeste 0 -- -- 62
2021-02-22 09:00:00 17.6 7 Oeste 12 Oeste 0 -- -- 67
2021-02-22 08:00:00 14.4 8 Oeste 12 Oeste 0 -- -- 76
2021-02-22 07:00:00 14.9 9 Oeste 15 Oeste 0 -- -- 72
2021-02-22 06:00:00 14.6 10 Oeste 13 Oeste 0 -- -- 74
2021-02-22 05:00:00 14.3 4 Oeste 15 Oeste 0 -- -- 74
2021-02-22 04:00:00 14.6 11 Oeste 15 Oeste 0 -- -- 74
2021-02-22 03:00:00 15 7 Oeste 10 Noroeste 0 -- -- 75
2021-02-22 02:00:00 16.3 7 Noroeste 10 Noroeste 0 -- -- 69
2021-02-22 01:00:00 16.7 7 Oeste 10 Oeste 0 -- -- 67
2021-02-22 00:00:00 16.6 5 Oeste 9 Oeste 0 -- -- 67
2021-02-21 23:00:00 16.5 5 Oeste 6 Oeste 0 -- -- 67
2021-02-21 22:00:00 17.9 6 Noroeste 11 Noroeste 0 -- -- 62
2021-02-21 21:00:00 17.7 8 Oeste 17 Norte 0 -- -- 63
2021-02-21 20:00:00 18.4 7 Norte 16 Norte 0 -- -- 61
2021-02-21 19:00:00 18.6 8 Norte 20 Norte 0 -- -- 60
2021-02-21 18:00:00 19.3 11 Norte 23 Norte 0 -- -- 56
2021-02-21 17:00:00 19.8 14 Norte 28 Norte 0 -- -- 52
2021-02-21 16:00:00 20.7 17 Norte 32 Norte 0 -- -- 48
2021-02-21 15:00:00 20.4 19 Norte 30 Norte 0 -- -- 52
2021-02-21 14:00:00 20.5 17 Norte 35 Noroeste 0 -- -- 52
2021-02-21 13:00:00 20.8 19 Norte 33 Norte 0 -- -- 51
2021-02-21 12:00:00 21 16 Norte 41 Noroeste 0 -- -- 47
2021-02-21 11:00:00 20.2 21 Noroeste 38 Noroeste 0 -- -- 52
2021-02-21 10:00:00 19.5 16 Noroeste 33 Noroeste 0 -- -- 59
2021-02-21 09:00:00 17.9 21 Noroeste 32 Noroeste 0 -- -- 62
2021-02-21 08:00:00 16.5 18 Noroeste 38 Oeste 0 -- -- 68
2021-02-21 07:00:00 16.4 16 Noroeste 32 Noroeste 0 -- -- 71
2021-02-21 06:00:00 16.1 11 Noroeste 23 Noroeste 0 -- -- 78
2021-02-21 05:00:00 15.9 14 Noroeste 26 Noroeste 0 -- -- 86
2021-02-21 04:00:00 16.1 13 Noroeste 26 Noroeste 0.2 -- -- 87
2021-02-21 03:00:00 16.6 14 Noroeste 41 Norte 0 -- -- 84
2021-02-21 02:00:00 17.2 17 Noroeste 37 Noroeste 0 -- -- 82
2021-02-21 01:00:00 17.3 21 Noroeste 44 Noroeste 0 -- -- 79
2021-02-21 00:00:00 18.8 19 Noroeste 40 Noroeste 0 -- -- 75
2021-02-20 23:00:00 17.7 3 Noroeste 7 Noroeste 0 -- -- 68
2021-02-20 22:00:00 17.7 5 Oeste 9 Noroeste 0 -- -- 63
2021-02-20 21:00:00 18.3 5 Oeste 9 Oeste 0 -- -- 62
2021-02-20 20:00:00 19 8 Oeste 14 Oeste 0 -- -- 66
2021-02-20 19:00:00 19.8 5 Noroeste 19 Noroeste 0 -- -- 62
2021-02-20 18:00:00 20.6 10 Norte 22 Oeste 0 -- -- 57
2021-02-20 17:00:00 20.3 6 Norte 20 Nordeste 0 -- -- 60
2021-02-20 16:00:00 20.7 14 Nordeste 29 Nordeste 0 -- -- 55
2021-02-20 15:00:00 21.9 13 Norte 31 Noroeste 0 -- -- 50
2021-02-20 14:00:00 21.9 16 Norte 24 Norte 0 -- -- 52
2021-02-20 13:00:00 21 10 Este 19 Nordeste 0 -- -- 52
2021-02-20 12:00:00 20.6 11 Norte 22 Norte 0 -- -- 51
2021-02-20 11:00:00 20.2 6 Nordeste 13 Este 0 -- -- 53
2021-02-20 10:00:00 19.6 5 Norte 10 Noroeste 0 -- -- 51
2021-02-20 09:00:00 14.8 7 Oeste 12 Oeste 0 -- -- 49
2021-02-20 08:00:00 13.4 6 Oeste 15 Oeste 0 -- -- 53
2021-02-20 07:00:00 12.6 12 Noroeste 17 Oeste 0 -- -- 58
2021-02-20 06:00:00 11.8 9 Oeste 13 Oeste 0 -- -- 66
2021-02-20 05:00:00 14.5 4 Sudoeste 13 Sur 0 -- -- 77
2021-02-20 04:00:00 12.7 5 Sudoeste 9 Oeste 0 -- -- 79
2021-02-20 03:00:00 13.9 8 Oeste 13 Oeste 0 -- -- 74
2021-02-20 02:00:00 14.2 3 Sudoeste 8 Sudoeste 0 -- -- 77
2021-02-20 01:00:00 13.7 4 Oeste 13 Oeste 0 -- -- 71
2021-02-20 00:00:00 13.7 7 Oeste 12 Oeste 0 -- -- 68
2021-02-19 23:00:00 14.1 5 Oeste 12 Oeste 0 -- -- 72
2021-02-19 22:00:00 14.9 2 Oeste 8 Oeste 0 -- -- 70
2021-02-19 21:00:00 16.1 5 Oeste 9 Oeste 0 -- -- 66
2021-02-19 20:00:00 17.2 0 Calma 3 Noroeste 0 -- -- 61
2021-02-19 19:00:00 19.6 3 Este 8 Este 0 -- -- 56
2021-02-19 18:00:00 20.6 6 Este 15 Nordeste 0 -- -- 51
2021-02-19 17:00:00 20.8 9 Nordeste 14 Nordeste 0 -- -- 56
2021-02-19 16:00:00 21.5 8 Este 13 Este 0 -- -- 46
2021-02-19 15:00:00 20.9 8 Este 14 Este 0 -- -- 57
2021-02-19 14:00:00 21.2 8 Este 12 Nordeste 0 -- -- 62
2021-02-19 13:00:00 20.7 10 Este 18 Este 0 -- -- 63
2021-02-19 12:00:00 20.2 10 Norte 17 Norte 0 -- -- 66
2021-02-19 11:00:00 20.1 8 Norte 13 Nordeste 0 -- -- 64
2021-02-19 10:00:00 19.4 4 Nordeste 12 Oeste 0 -- -- 65
2021-02-19 09:00:00 15.8 10 Oeste 16 Oeste 0 -- -- 39
2021-02-19 08:00:00 13.2 12 Oeste 15 Oeste 0 -- -- 44
2021-02-19 07:00:00 12.5 8 Noroeste 14 Oeste 0 -- -- 47
2021-02-19 06:00:00 13.2 10 Oeste 15 Oeste 0 -- -- 43
2021-02-19 05:00:00 13.6 13 Oeste 17 Oeste 0 -- -- 40
2021-02-19 04:00:00 13.5 12 Oeste 16 Oeste 0 -- -- 41
2021-02-19 03:00:00 13.5 14 Oeste 17 Oeste 0 -- -- 52
2021-02-19 02:00:00 12.8 9 Oeste 12 Oeste 0 -- -- 57
2021-02-19 01:00:00 13.3 8 Noroeste 10 Noroeste 0 -- -- 62
2021-02-19 00:00:00 14.9 9 Noroeste 15 Noroeste 0 -- -- 71
2021-02-18 23:00:00 15.1 8 Noroeste 11 Noroeste 0 -- -- 75
2021-02-18 22:00:00 16.1 8 Noroeste 12 Noroeste 0 -- -- 77
2021-02-18 21:00:00 16.9 9 Noroeste 13 Noroeste 0 -- -- 77
2021-02-18 20:00:00 18.2 7 Noroeste 14 Norte 0 -- -- 72
2021-02-18 19:00:00 19 9 Norte 17 Norte 0 -- -- 70
2021-02-18 18:00:00 19.6 11 Nordeste 19 Norte 0 -- -- 67
2021-02-18 17:00:00 20.1 12 Norte 21 Nordeste 0 -- -- 63
2021-02-18 16:00:00 20.3 13 Norte 22 Nordeste 0 -- -- 63
2021-02-18 15:00:00 20.3 14 Nordeste 21 Nordeste 0 -- -- 61
2021-02-18 14:00:00 20.5 13 Nordeste 19 Nordeste 0 -- -- 59
2021-02-18 13:00:00 20.7 12 Nordeste 20 Norte 0 -- -- 61
2021-02-18 12:00:00 20.4 12 Nordeste 20 Norte 0 -- -- 57
2021-02-18 11:00:00 20 12 Norte 18 Nordeste 0 -- -- 58
2021-02-18 10:00:00 19.1 8 Norte 16 Noroeste 0 -- -- 59
2021-02-18 09:00:00 16.1 10 Oeste 17 Oeste 0 -- -- 60
2021-02-18 08:00:00 13.6 14 Oeste 18 Oeste 0 -- -- 59
2021-02-18 07:00:00 13.7 13 Oeste 17 Oeste 0 -- -- 65
2021-02-18 06:00:00 14.1 9 Noroeste 15 Oeste 0 -- -- 67
2021-02-18 05:00:00 14.1 12 Noroeste 14 Oeste 0 -- -- 63
2021-02-18 04:00:00 13.4 9 Noroeste 14 Oeste 0 -- -- 58
2021-02-18 03:00:00 13.7 12 Oeste 15 Oeste 0 -- -- 56
2021-02-18 02:00:00 13.8 12 Oeste 20 Oeste 0 -- -- 47
2021-02-18 01:00:00 13.4 12 Oeste 16 Oeste 0 -- -- 41
2021-02-18 00:00:00 13.6 13 Oeste 15 Oeste 0 -- -- 38
2021-02-17 23:00:00 14.1 12 Oeste 15 Oeste 0 -- -- 45
2021-02-17 22:00:00 14.6 11 Oeste 15 Oeste 0 -- -- 56
2021-02-17 21:00:00 15 9 Oeste 12 Oeste 0 -- -- 59
2021-02-17 20:00:00 16.5 4 Norte 15 Norte 0 -- -- 52
2021-02-17 19:00:00 18.1 8 Nordeste 15 Este 0 -- -- 47
2021-02-17 18:00:00 18.6 10 Nordeste 18 Nordeste 0 -- -- 46
2021-02-17 17:00:00 19.2 10 Este 15 Este 0 -- -- 44
2021-02-17 16:00:00 19.7 8 Este 15 Este 0 -- -- 41
2021-02-17 15:00:00 20.1 8 Este 17 Este 0 -- -- 40
2021-02-17 14:00:00 20.3 8 Sudeste 17 Este 0 -- -- 40
2021-02-17 13:00:00 20.6 7 Sudeste 18 Sur 0 -- -- 38
2021-02-17 12:00:00 20.5 9 Sudeste 23 Sudeste 0 -- -- 36
2021-02-17 11:00:00 20.3 9 Sudeste 21 Este 0 -- -- 34
2021-02-17 10:00:00 19.7 9 Sudeste 21 Sudeste 0 -- -- 43
2021-02-17 09:00:00 18.9 8 Sudeste 21 Este 0 -- -- 49
2021-02-17 08:00:00 18.1 10 Este 21 Este 0 -- -- 57
2021-02-17 07:00:00 17.9 7 Este 19 Este 0 -- -- 64
2021-02-17 06:00:00 17.3 10 Este 21 Este 0 -- -- 69
2021-02-17 05:00:00 14.1 2 Oeste 14 Oeste 0 -- -- 73
2021-02-17 04:00:00 14.5 9 Oeste 13 Oeste 0 -- -- 71
2021-02-17 03:00:00 15.3 7 Oeste 11 Oeste 0 -- -- 66
2021-02-17 02:00:00 15.7 6 Noroeste 15 Oeste 0 -- -- 53
2021-02-17 01:00:00 15.8 12 Oeste 17 Noroeste 0 -- -- 40
2021-02-17 00:00:00 17.2 11 Noroeste 22 Oeste 0 -- -- 34
2021-02-16 23:00:00 17.2 12 Noroeste 18 Oeste 0 -- -- 32
2021-02-16 22:00:00 17.3 11 Noroeste 22 Noroeste 0 -- -- 34
2021-02-16 21:00:00 17.3 14 Noroeste 20 Oeste 0 -- -- 37
2021-02-16 20:00:00 17.9 10 Noroeste 16 Oeste 0 -- -- 33
2021-02-16 19:00:00 18.6 8 Noroeste 11 Oeste 0 -- -- 35
2021-02-16 18:00:00 20.9 3 Norte 8 Norte 0 -- -- 30
2021-02-16 17:00:00 20.4 4 Este 13 Sudeste 0 -- -- 38
2021-02-16 16:00:00 20.5 7 Este 19 Este 0 -- -- 40
2021-02-16 15:00:00 20.8 9 Este 23 Este 0 -- -- 42
2021-02-16 14:00:00 21.3 8 Sudeste 19 Este 0 -- -- 44
2021-02-16 13:00:00 21.6 10 Sudeste 21 Sudeste 0 -- -- 36
2021-02-16 12:00:00 22 6 Sudeste 20 Sudeste 0 -- -- 45
2021-02-16 11:00:00 21.3 7 Sudeste 17 Sur 0 -- -- 45
2021-02-16 10:00:00 20.5 6 Sudeste 17 Sudoeste 0 -- -- 49
2021-02-16 09:00:00 18.8 5 Sur 14 Sudeste 0 -- -- 55
2021-02-16 08:00:00 16.5 6 Sur 12 Sur 0 -- -- 58
2021-02-16 07:00:00 17.2 4 Sudoeste 10 Este 0 -- -- 58
2021-02-16 06:00:00 19.8 6 Sudeste 15 Este 0 -- -- 49
2021-02-16 05:00:00 20.2 6 Sudeste 19 Sudeste 0 -- -- 43
2021-02-16 04:00:00 19.9 4 Sur 18 Sur 0 -- -- 46
2021-02-16 03:00:00 20 10 Sudoeste 18 Sur 0 -- -- 43
2021-02-16 02:00:00 20.3 4 Sur 13 Sudoeste 0 -- -- 56
2021-02-16 01:00:00 20.9 4 Sur 12 Sur 0 -- -- 48
2021-02-16 00:00:00 20 3 Sur 9 Sur 0 -- -- 45
2021-02-15 23:00:00 19.7 3 Oeste 13 Noroeste 0 -- -- 42
2021-02-15 22:00:00 19.5 8 Noroeste 13 Norte 0 -- -- 49
2021-02-15 21:00:00 19.7 4 Noroeste 10 Oeste 0 -- -- 34
2021-02-15 20:00:00 20.4 5 Noroeste 12 Este 0 -- -- 55
2021-02-15 19:00:00 22.1 2 Sur 9 Sudeste 0 -- -- 32
2021-02-15 18:00:00 23.6 2 Este 11 Oeste 0 -- -- 25
2021-02-15 17:00:00 23.7 6 Este 15 Sur 0 -- -- 24
2021-02-15 16:00:00 24.2 5 Sudeste 13 Sudeste 0 -- -- 25
2021-02-15 15:00:00 23.4 4 Sudeste 12 Este 0 -- -- 34
2021-02-15 14:00:00 23.2 7 Este 12 Este 0 -- -- 47
2021-02-15 13:00:00 22.6 6 Este 14 Sudeste 0 -- -- 48
2021-02-15 12:00:00 22.9 6 Sudeste 17 Oeste 0 -- -- 44
2021-02-15 11:00:00 22.2 5 Sur 15 Nordeste 0 -- -- 48
2021-02-15 10:00:00 20 8 Norte 15 Norte 0 -- -- 77
2021-02-15 09:00:00 17 9 Noroeste 15 Noroeste 0 -- -- 85
2021-02-15 08:00:00 14.8 9 Oeste 14 Noroeste 0 -- -- 88
2021-02-15 07:00:00 15 6 Noroeste 17 Noroeste 0 -- -- 88
2021-02-15 06:00:00 15.1 8 Noroeste 13 Noroeste 0 -- -- 86
2021-02-15 05:00:00 15.6 9 Noroeste 17 Noroeste 0 -- -- 86
2021-02-15 04:00:00 15.8 9 Noroeste 14 Noroeste 0 -- -- 82
2021-02-15 03:00:00 16.7 6 Noroeste 14 Noroeste 0 -- -- 86
2021-02-15 02:00:00 16.5 8 Noroeste 16 Norte 0 -- -- 87
2021-02-15 01:00:00 16.6 9 Norte 21 Norte 0 -- -- 86
2021-02-15 00:00:00 16.2 11 Noroeste 19 Noroeste 0 -- -- 85
2021-02-14 23:00:00 16.4 8 Noroeste 19 Norte 0 -- -- 84
2021-02-14 22:00:00 17.1 10 Noroeste 25 Norte 0 -- -- 82
2021-02-14 21:00:00 17.6 15 Norte 24 Norte 0 -- -- 81
2021-02-14 20:00:00 17.5 9 Norte 19 Norte 0 -- -- 81
2021-02-14 19:00:00 18.2 9 Norte 19 Nordeste 0 -- -- 78
2021-02-14 18:00:00 19 10 Nordeste 19 Noroeste 0 -- -- 72
2021-02-14 17:00:00 19.5 11 Norte 19 Nordeste 0 -- -- 70
2021-02-14 16:00:00 19.8 12 Nordeste 21 Norte 0 -- -- 68
2021-02-14 15:00:00 19.6 17 Nordeste 23 Norte 0 -- -- 66
2021-02-14 14:00:00 19.8 17 Nordeste 27 Nordeste 0 -- -- 65
2021-02-14 13:00:00 19.6 16 Norte 27 Nordeste 0 -- -- 64
2021-02-14 12:00:00 19.4 15 Norte 27 Norte 0 -- -- 65
2021-02-14 11:00:00 19 15 Norte 25 Norte 0 -- -- 66
2021-02-14 10:00:00 18.6 16 Norte 28 Norte 0 -- -- 68
2021-02-14 09:00:00 17.6 12 Norte 23 Norte 0 -- -- 72
2021-02-14 08:00:00 16 10 Noroeste 24 Noroeste 0 -- -- 78
2021-02-14 07:00:00 16.3 10 Noroeste 23 Noroeste 0 -- -- 77
2021-02-14 06:00:00 16.4 10 Noroeste 25 Norte 0 -- -- 77
2021-02-14 05:00:00 16 9 Noroeste 19 Noroeste 0 -- -- 78
2021-02-14 04:00:00 16.1 12 Noroeste 21 Noroeste 0 -- -- 77
2021-02-14 03:00:00 16.3 11 Noroeste 22 Norte 0 -- -- 76
2021-02-14 02:00:00 16.5 10 Noroeste 22 Noroeste 0 -- -- 75
2021-02-14 01:00:00 17.1 14 Noroeste 23 Noroeste 0 -- -- 72
2021-02-14 00:00:00 17 11 Noroeste 20 Noroeste 0 -- -- 72
2021-02-13 23:00:00 17.5 12 Noroeste 28 Noroeste 0 -- -- 70
2021-02-13 22:00:00 18.1 15 Norte 30 Noroeste 0 -- -- 68
2021-02-13 21:00:00 18.3 16 Norte 30 Norte 0 -- -- 66
2021-02-13 20:00:00 18.6 16 Norte 32 Norte 0 -- -- 68
2021-02-13 19:00:00 18.8 15 Norte 35 Norte 0 -- -- 67
2021-02-13 18:00:00 19.7 18 Norte 33 Noroeste 0 -- -- 63
2021-02-13 17:00:00 20.6 19 Norte 32 Norte 0 -- -- 59
2021-02-13 16:00:00 20.7 18 Norte 37 Norte 0 -- -- 60
2021-02-13 15:00:00 20.9 19 Norte 34 Norte 0 -- -- 60
2021-02-13 14:00:00 21 19 Norte 32 Norte 0 -- -- 58
2021-02-13 13:00:00 21 17 Norte 35 Norte 0 -- -- 60
2021-02-13 12:00:00 20.7 19 Norte 32 Norte 0 -- -- 59
2021-02-13 07:00:00 18.2 13 Norte 30 Norte 0 -- -- 72
2021-02-13 06:00:00 18.1 12 Norte 23 Noroeste 0 -- -- 75
2021-02-13 05:00:00 18.3 11 Norte 22 Norte 0 -- -- 72
2021-02-13 04:00:00 18.4 11 Norte 24 Norte 0 -- -- 71
2021-02-13 03:00:00 18.5 16 Norte 28 Norte 0 -- -- 73
2021-02-13 02:00:00 18.1 14 Noroeste 27 Noroeste 0 -- -- 71
2021-02-13 01:00:00 18.2 17 Norte 33 Norte 0 -- -- 73
2021-02-13 00:00:00 18.4 17 Norte 32 Norte 0 -- -- 75
2021-02-12 23:00:00 17.8 14 Noroeste 23 Noroeste 0 -- -- 78
2021-02-12 22:00:00 18 10 Noroeste 24 Norte 0 -- -- 78
2021-02-12 21:00:00 18.4 16 Norte 30 Norte 0 -- -- 76
2021-02-12 20:00:00 18.8 13 Norte 29 Norte 0 -- -- 74
2021-02-12 19:00:00 19.1 17 Norte 28 Norte 0 -- -- 75
2021-02-12 18:00:00 19.4 15 Norte 29 Norte 0 -- -- 72
2021-02-12 17:00:00 20.3 17 Norte 30 Norte 0 -- -- 72
2021-02-12 16:00:00 20.7 18 Norte 31 Norte 0 -- -- 70
2021-02-12 15:00:00 21.1 18 Norte 30 Norte 0 -- -- 68
2021-02-12 14:00:00 20.6 18 Norte 32 Norte 0 -- -- 68
2021-02-12 13:00:00 20.7 20 Norte 30 Norte 0 -- -- 67
2021-02-12 12:00:00 21 15 Norte 27 Norte 0 -- -- 67
2021-02-12 11:00:00 20 15 Norte 26 Norte 0 -- -- 69
2021-02-12 10:00:00 18.9 12 Norte 23 Noroeste 0 -- -- 72
2021-02-12 09:00:00 18 11 Noroeste 22 Nordeste 0 -- -- 78
2021-02-12 08:00:00 17.9 16 Nordeste 28 Norte 0.2 -- -- 74
2021-02-12 07:00:00 17.1 11 Noroeste 19 Noroeste 0 -- -- 83
2021-02-12 06:00:00 16.5 13 Noroeste 19 Noroeste 0 -- -- 85
2021-02-12 05:00:00 16.7 12 Noroeste 21 Noroeste 0.6 -- -- 85
2021-02-12 04:00:00 17.4 9 Noroeste 15 Noroeste 0 -- -- 84
2021-02-12 03:00:00 17.5 9 Norte 22 Norte 0 -- -- 83
2021-02-12 02:00:00 17.3 6 Noroeste 18 Noroeste 0 -- -- 84
2021-02-12 01:00:00 18.4 10 Noroeste 24 Noroeste 0 -- -- 76
2021-02-12 00:00:00 18.5 12 Norte 24 Norte 0 -- -- 73
2021-02-11 23:00:00 18.1 8 Noroeste 29 Norte 0 -- -- 77
2021-02-11 22:00:00 18.9 17 Norte 26 Norte 0 -- -- 73
2021-02-11 21:00:00 18.7 10 Norte 22 Norte 0 -- -- 72
2021-02-11 20:00:00 18.8 11 Norte 25 Norte 0 -- -- 68
2021-02-11 19:00:00 19.5 17 Norte 27 Norte 0 -- -- 67
2021-02-11 18:00:00 20.4 13 Norte 29 Noroeste 0 -- -- 58
2021-02-11 17:00:00 21 13 Norte 27 Norte 0 -- -- 58
2021-02-11 16:00:00 20.5 18 Norte 31 Norte 0 -- -- 64
2021-02-11 15:00:00 20.5 18 Nordeste 32 Nordeste 0 -- -- 65
2021-02-11 14:00:00 20.7 21 Nordeste 30 Nordeste 0 -- -- 63
2021-02-11 13:00:00 21 18 Nordeste 26 Norte 0 -- -- 61
2021-02-11 12:00:00 20.7 17 Nordeste 24 Nordeste 0 -- -- 63
2021-02-11 11:00:00 20.6 11 Nordeste 18 Norte 0 -- -- 63
2021-02-11 10:00:00 19.2 8 Norte 13 Norte 0 -- -- 64
2021-02-11 09:00:00 15.7 2 Noroeste 8 Noroeste 0 -- -- 74
2021-02-11 08:00:00 14 7 Oeste 13 Oeste 0 -- -- 77
2021-02-11 07:00:00 13.1 9 Oeste 10 Oeste 0 -- -- 81
2021-02-11 06:00:00 12.6 6 Noroeste 13 Noroeste 0 -- -- 78
2021-02-11 05:00:00 13.4 8 Noroeste 10 Noroeste 0 -- -- 76
2021-02-11 04:00:00 13.2 9 Noroeste 15 Oeste 0 -- -- 74
2021-02-11 03:00:00 13.4 11 Oeste 15 Oeste 0 -- -- 74
2021-02-11 02:00:00 13.7 10 Oeste 14 Oeste 0 -- -- 78
2021-02-11 01:00:00 13.7 9 Oeste 13 Oeste 0 -- -- 81
2021-02-11 00:00:00 14.6 9 Oeste 13 Oeste 0 -- -- 81
2021-02-10 23:00:00 15.1 10 Oeste 13 Oeste 0 -- -- 81
2021-02-10 22:00:00 16.1 8 Oeste 10 Oeste 0 -- -- 81
2021-02-10 21:00:00 17.7 5 Noroeste 13 Norte 0 -- -- 76
2021-02-10 20:00:00 18.6 8 Norte 14 Norte 0 -- -- 73
2021-02-10 19:00:00 19 9 Norte 16 Norte 0 -- -- 73
2021-02-10 18:00:00 19.4 10 Norte 18 Norte 0 -- -- 71
2021-02-10 17:00:00 19.6 10 Nordeste 15 Nordeste 0 -- -- 70
2021-02-10 16:00:00 19.6 10 Nordeste 15 Nordeste 0 -- -- 70
2021-02-10 15:00:00 19.7 10 Nordeste 16 Norte 0 -- -- 70
2021-02-10 14:00:00 20 12 Nordeste 19 Nordeste 0 -- -- 69
2021-02-10 13:00:00 20.6 13 Norte 20 Norte 0 -- -- 63
2021-02-10 12:00:00 20.7 12 Nordeste 17 Nordeste 0 -- -- 65
2021-02-10 11:00:00 20.2 10 Nordeste 18 Nordeste 0 -- -- 64
2021-02-10 10:00:00 19.5 8 Nordeste 13 Norte 0 -- -- 66
2021-02-10 09:00:00 16.1 8 Oeste 13 Noroeste 0 -- -- 71
2021-02-10 08:00:00 13.2 9 Oeste 13 Oeste 0 -- -- 79
2021-02-10 07:00:00 12.7 4 Oeste 9 Oeste 0 -- -- 80
2021-02-10 06:00:00 12.9 5 Oeste 10 Oeste 0 -- -- 81
2021-02-10 05:00:00 12.7 7 Oeste 10 Noroeste 0 -- -- 83
2021-02-10 04:00:00 12.8 3 Oeste 10 Oeste 0 -- -- 79
2021-02-10 03:00:00 13.4 8 Oeste 12 Oeste 0 -- -- 79
2021-02-10 02:00:00 13.2 5 Oeste 11 Oeste 0 -- -- 80
2021-02-10 01:00:00 13 5 Noroeste 8 Oeste 0 -- -- 82
2021-02-10 00:00:00 13.4 6 Noroeste 10 Oeste 0 -- -- 81
2021-02-09 23:00:00 13.9 8 Oeste 10 Oeste 0 -- -- 81
2021-02-09 22:00:00 14.6 7 Oeste 10 Oeste 0 -- -- 79
2021-02-09 21:00:00 15.6 6 Noroeste 7 Noroeste 0 -- -- 76
2021-02-09 20:00:00 17.1 5 Noroeste 13 Norte 0 -- -- 71
2021-02-09 19:00:00 18.3 5 Noroeste 16 Noroeste 0 -- -- 67
2021-02-09 18:00:00 19.9 9 Norte 21 Norte 0 -- -- 60
2021-02-09 17:00:00 20.1 13 Nordeste 18 Nordeste 0 -- -- 61
2021-02-09 16:00:00 20.1 7 Nordeste 15 Nordeste 0 -- -- 59
2021-02-09 15:00:00 20.3 9 Nordeste 18 Norte 0 -- -- 57
2021-02-09 14:00:00 20.8 13 Nordeste 21 Nordeste 0 -- -- 55
2021-02-09 13:00:00 21 14 Nordeste 21 Nordeste 0 -- -- 53
2021-02-09 12:00:00 20.9 12 Norte 22 Nordeste 0 -- -- 54
2021-02-09 11:00:00 20.4 8 Norte 17 Noroeste 0 -- -- 59
2021-02-09 10:00:00 19.1 7 Oeste 16 Oeste 0 -- -- 60
2021-02-09 09:00:00 16.2 8 Oeste 15 Oeste 0 -- -- 67
2021-02-09 08:00:00 15.3 7 Oeste 17 Oeste 0 -- -- 70
2021-02-09 07:00:00 14.9 11 Oeste 16 Oeste 0 -- -- 70
2021-02-09 06:00:00 13.9 10 Oeste 15 Oeste 0 -- -- 73
2021-02-09 05:00:00 13.9 13 Oeste 17 Oeste 0 -- -- 71
2021-02-09 04:00:00 13.7 12 Oeste 16 Oeste 0 -- -- 75
2021-02-09 03:00:00 14.3 10 Oeste 14 Oeste 0 -- -- 73
2021-02-09 02:00:00 16 7 Noroeste 16 Noroeste 0 -- -- 69
2021-02-09 01:00:00 17.9 9 Noroeste 18 Noroeste 0 -- -- 64
2021-02-09 00:00:00 17.7 10 Noroeste 21 Noroeste 0 -- -- 64
2021-02-08 23:00:00 18.2 11 Norte 23 Noroeste 0 -- -- 61
2021-02-08 22:00:00 18.3 13 Norte 26 Norte 0 -- -- 63
2021-02-08 21:00:00 17.8 8 Noroeste 21 Norte 0 -- -- 71
2021-02-08 20:00:00 17.6 9 Noroeste 24 Noroeste 0 -- -- 73
2021-02-08 19:00:00 18.6 11 Norte 22 Norte 0 -- -- 68
2021-02-08 18:00:00 19.3 12 Norte 23 Norte 0 -- -- 64
2021-02-08 17:00:00 20.1 13 Norte 25 Norte 0 -- -- 64
2021-02-08 16:00:00 20 15 Norte 26 Norte 0 -- -- 64
2021-02-08 15:00:00 20.3 15 Nordeste 27 Norte 0 -- -- 62
2021-02-08 14:00:00 20.3 16 Norte 30 Norte 0 -- -- 62
2021-02-08 13:00:00 19.4 19 Norte 32 Noroeste 0 -- -- 67
2021-02-08 12:00:00 19.8 15 Nordeste 23 Norte 0 -- -- 63
2021-02-08 11:00:00 19.5 11 Norte 22 Noroeste 0 -- -- 60
2021-02-08 10:00:00 17.7 14 Noroeste 21 Noroeste 0 -- -- 70
2021-02-08 09:00:00 17.2 11 Noroeste 19 Noroeste 0 -- -- 68
2021-02-08 08:00:00 16.8 6 Noroeste -- -- 0 -- -- 69
2021-02-08 07:00:00 16.9 11 Noroeste 19 Noroeste 0 -- -- 67
2021-02-08 06:00:00 16.6 7 Noroeste 15 Noroeste 0 -- -- 69
2021-02-08 05:00:00 16.6 8 Noroeste 15 Noroeste 0 -- -- 69
2021-02-08 04:00:00 16.6 11 Noroeste 19 Noroeste 0 -- -- 68
2021-02-08 03:00:00 15.9 8 Noroeste 14 Noroeste 0 -- -- 73
2021-02-08 02:00:00 16.3 8 Noroeste 14 Noroeste 0 -- -- 72
2021-02-08 01:00:00 16.4 9 Noroeste 23 Noroeste 0 -- -- 72
2021-02-08 00:00:00 16.2 10 Noroeste 16 Noroeste 0 -- -- 74
2021-02-07 23:00:00 15.7 10 Noroeste 16 Noroeste 0 -- -- 75
2021-02-07 22:00:00 16.2 9 Noroeste 19 Noroeste 0 -- -- 73
2021-02-07 21:00:00 16.6 8 Noroeste 18 Norte 0 -- -- 71
2021-02-07 20:00:00 17.8 9 Norte 24 Norte 0 -- -- 66
2021-02-07 19:00:00 17.9 12 Norte 23 Norte 0 -- -- 65
2021-02-07 18:00:00 18.8 12 Norte 26 Norte 0 -- -- 61
2021-02-07 17:00:00 19.2 14 Norte 33 Norte 0 -- -- 62
2021-02-07 16:00:00 20 12 Norte 30 Norte 0 -- -- 57
2021-02-07 15:00:00 20.1 18 Norte 31 Norte 0 -- -- 56
2021-02-07 14:00:00 20 15 Norte 32 Nordeste 0 -- -- 56
2021-02-07 13:00:00 19.9 16 Norte 29 Norte 0 -- -- 56
2021-02-07 12:00:00 19.4 13 Norte 29 Nordeste 0 -- -- 60
2021-02-07 11:00:00 18.1 13 Norte 22 Norte 0 -- -- 64
2021-02-07 10:00:00 17.2 8 Noroeste 17 Noroeste 0 -- -- 67
2021-02-07 09:00:00 16 7 Noroeste 15 Oeste 0 -- -- 72
2021-02-07 08:00:00 15.1 8 Oeste 15 Oeste 0 -- -- 75
2021-02-07 07:00:00 15 13 Noroeste 18 Noroeste 0 -- -- 77
2021-02-07 06:00:00 15 10 Noroeste 15 Noroeste 0 -- -- 76
2021-02-07 05:00:00 14.5 7 Noroeste 18 Noroeste 0 -- -- 73
2021-02-07 04:00:00 14.8 10 Noroeste 19 Oeste 0 -- -- 81
2021-02-07 03:00:00 14.7 6 Noroeste 13 Noroeste 0 -- -- 76
2021-02-07 02:00:00 14.4 9 Oeste 15 Noroeste 0 -- -- 76
2021-02-07 01:00:00 14.9 11 Noroeste 24 Noroeste 0 -- -- 79
2021-02-07 00:00:00 15.4 14 Noroeste 30 Noroeste 0 -- -- 74
2021-02-06 23:00:00 15.2 21 Noroeste 32 Noroeste 0 -- -- 73
2021-02-06 22:00:00 15.6 12 Noroeste 36 Noroeste 0 -- -- 72
2021-02-06 21:00:00 15.4 9 Noroeste 24 Noroeste 0.2 -- -- 77
2021-02-06 20:00:00 16 14 Noroeste 28 Noroeste 0 -- -- 72
2021-02-06 19:00:00 17 12 Noroeste 31 Noroeste 0 -- -- 65
2021-02-06 18:00:00 18 22 Noroeste 37 Norte 0 -- -- 60
2021-02-06 17:00:00 18.5 18 Noroeste 35 Noroeste 0 -- -- 63
2021-02-06 16:00:00 17.6 22 Noroeste 37 Oeste 0 -- -- 68
2021-02-06 15:00:00 18.3 20 Noroeste 42 Noroeste 0.2 -- -- 68
2021-02-06 14:00:00 19.6 25 Noroeste 44 Noroeste 0 -- -- 54
2021-02-06 13:00:00 18 18 Norte 41 Norte 0 -- -- 62
2021-02-06 12:00:00 18.4 21 Noroeste 41 Noroeste 0 -- -- 62
2021-02-06 11:00:00 17.5 19 Noroeste 39 Noroeste 0 -- -- 65
2021-02-06 10:00:00 15.8 12 Noroeste 32 Norte 0 -- -- 72
2021-02-06 09:00:00 15.3 14 Noroeste 35 Noroeste 0.2 -- -- 66
2021-02-06 08:00:00 13.2 18 Noroeste 45 Noroeste 0 -- -- 74
2021-02-06 07:00:00 14 13 Noroeste 35 Noroeste 0 -- -- 69
2021-02-06 06:00:00 13.2 7 Noroeste 24 Norte 0.2 -- -- 73
2021-02-06 05:00:00 14 12 Noroeste 26 Noroeste 0 -- -- 64
2021-02-06 04:00:00 14.2 15 Noroeste 28 Noroeste 0 -- -- 65
2021-02-06 03:00:00 13.3 11 Noroeste 30 Noroeste 0.2 -- -- 80
2021-02-06 02:00:00 13.8 16 Noroeste 30 Norte 0.6 -- -- 72
2021-02-06 01:00:00 13.6 10 Norte 26 Noroeste 1 -- -- 77
2021-02-06 00:00:00 12.9 12 Noroeste 29 Noroeste 0.4 -- -- 80
2021-02-05 23:00:00 13.1 18 Noroeste 38 Norte 0.4 -- -- 76
2021-02-05 22:00:00 13.5 9 Noroeste 23 Noroeste 0.4 -- -- 77
2021-02-05 21:00:00 13.4 13 Noroeste 26 Oeste 0.2 -- -- 74
2021-02-05 20:00:00 13.4 19 Noroeste 31 Noroeste 0 -- -- 67
2021-02-05 19:00:00 13.1 21 Noroeste 39 Oeste 0 -- -- 72
2021-02-05 18:00:00 14.7 13 Noroeste 27 Noroeste 0 -- -- 67
2021-02-05 17:00:00 13.9 13 Noroeste 34 Noroeste 0 -- -- 76
2021-02-05 16:00:00 13.4 16 Noroeste 30 Oeste 0.8 -- -- 76
2021-02-05 15:00:00 12.9 22 Oeste 44 Oeste 1 -- -- 76
2021-02-05 14:00:00 15.5 15 Norte 35 Noroeste 0.2 -- -- 73
2021-02-05 13:00:00 13.8 21 Noroeste 36 Noroeste 1 -- -- 77
2021-02-05 12:00:00 13.4 19 Noroeste 36 Noroeste 1.2 -- -- 78
2021-02-05 11:00:00 14.7 19 Noroeste 35 Norte 0.4 -- -- 73
2021-02-05 10:00:00 16.3 17 Noroeste 30 Noroeste 0 -- -- 55
2021-02-05 09:00:00 14.4 11 Noroeste 20 Oeste 0 -- -- 64
2021-02-05 08:00:00 12.7 9 Noroeste 30 Noroeste 0 -- -- 66
2021-02-05 07:00:00 12.8 16 Oeste 23 Oeste 0.2 -- -- 74
2021-02-05 06:00:00 13.2 8 Norte 23 Noroeste 0 -- -- 76
2021-02-05 05:00:00 13.6 15 Oeste 29 Noroeste 0 -- -- 62
2021-02-05 04:00:00 13.6 17 Noroeste 27 Noroeste 0 -- -- 59
2021-02-05 03:00:00 13.2 14 Oeste 32 Noroeste 0 -- -- 63
2021-02-05 02:00:00 13.4 22 Noroeste 36 Noroeste 0 -- -- 70
2021-02-05 01:00:00 14.9 25 Oeste 39 Noroeste 0 -- -- 53
2021-02-05 00:00:00 13.6 13 Oeste 23 Oeste 0 -- -- 70
2021-02-04 23:00:00 13.4 13 Noroeste 31 Noroeste 0 -- -- 74
2021-02-04 22:00:00 14.4 16 Noroeste 27 Norte 0 -- -- 75
2021-02-04 21:00:00 14.8 17 Noroeste 27 Oeste 0 -- -- 69
2021-02-04 20:00:00 14.1 12 Noroeste 33 Oeste 0.4 -- -- 74
2021-02-04 19:00:00 14.8 21 Noroeste 36 Norte 0 -- -- 74
2021-02-04 18:00:00 16.3 18 Norte 34 Norte 0 -- -- 70
2021-02-04 17:00:00 16.6 16 Oeste 43 Noroeste 0 -- -- 67
2021-02-04 16:00:00 15.7 19 Noroeste 33 Noroeste 2.8 -- -- 67
2021-02-04 15:00:00 17.6 18 Noroeste 32 Noroeste 0.2 -- -- 66
2021-02-04 14:00:00 16.5 13 Norte 26 Noroeste 0 -- -- 76
2021-02-04 13:00:00 16.3 10 Norte 32 Noroeste 0.6 -- -- 79
2021-02-04 12:00:00 16.4 14 Noroeste 30 Noroeste 0 -- -- 72
2021-02-04 11:00:00 16.8 19 Noroeste 28 Noroeste 0 -- -- 69
2021-02-04 10:00:00 16 12 Noroeste 30 Noroeste 0 -- -- 79
2021-02-04 09:00:00 16 15 Norte 27 Norte 0 -- -- 79
2021-02-04 08:00:00 16.1 13 Noroeste 24 Norte 0 -- -- 79
2021-02-04 07:00:00 15.1 7 Oeste 11 Oeste 0 -- -- 72
2021-02-04 06:00:00 15 4 Noroeste 9 Oeste 0 -- -- 75
2021-02-04 05:00:00 16.2 3 Noroeste 12 Noroeste 0 -- -- 72
2021-02-04 04:00:00 16.4 8 Oeste 14 Oeste 0 -- -- 72
2021-02-04 03:00:00 15.5 10 Oeste 15 Oeste 0 -- -- 73
2021-02-04 02:00:00 16 7 Oeste 17 Noroeste 0 -- -- 73
2021-02-04 01:00:00 16.5 7 Noroeste 14 Noroeste 0 -- -- 72
2021-02-04 00:00:00 16.4 7 Noroeste 17 Oeste 0 -- -- 73
2021-02-03 23:00:00 16.6 9 Noroeste 17 Norte 0 -- -- 74
2021-02-03 22:00:00 17.5 12 Norte 28 Norte 0 -- -- 70
2021-02-03 21:00:00 17.7 14 Norte 25 Norte 0 -- -- 70
2021-02-03 20:00:00 17.9 13 Norte 22 Norte 0 -- -- 70
2021-02-03 19:00:00 18.3 11 Norte 23 Norte 0 -- -- 68
2021-02-03 18:00:00 19.2 12 Norte 28 Norte 0 -- -- 66
2021-02-03 17:00:00 19.8 16 Norte 27 Norte 0 -- -- 64
2021-02-03 16:00:00 19.8 17 Nordeste 28 Nordeste 0 -- -- 65
2021-02-03 15:00:00 19.7 18 Nordeste 25 Norte 0 -- -- 65
2021-02-03 14:00:00 19.6 16 Nordeste 27 Nordeste 0 -- -- 66
2021-02-03 13:00:00 19.8 14 Nordeste 24 Nordeste 0 -- -- 65
2021-02-03 12:00:00 19.7 12 Nordeste 19 Norte 0 -- -- 65
2021-02-03 11:00:00 19.1 5 Nordeste 15 Nordeste 0 -- -- 68
2021-02-03 10:00:00 18.4 5 Norte 15 Noroeste 0 -- -- 71
2021-02-03 09:00:00 16.9 7 Oeste 13 Oeste 0 -- -- 74
2021-02-03 08:00:00 16.3 8 Noroeste 16 Oeste 0 -- -- 77
2021-02-03 07:00:00 16.3 9 Noroeste 15 Noroeste 0 -- -- 77
2021-02-03 06:00:00 16.4 8 Noroeste 13 Oeste 0 -- -- 78
2021-02-03 05:00:00 16.3 8 Noroeste 15 Noroeste 0 -- -- 81
2021-02-03 04:00:00 15.1 10 Noroeste 13 Noroeste 0 -- -- 84
2021-02-03 03:00:00 15.4 9 Noroeste 15 Noroeste 0 -- -- 83
2021-02-03 02:00:00 15.5 6 Noroeste 13 Noroeste 0 -- -- 80
2021-02-03 01:00:00 17 8 Noroeste 22 Noroeste 0 -- -- 77
2021-02-03 00:00:00 17.4 10 Noroeste 22 Norte 0 -- -- 75
2021-02-02 23:00:00 18 11 Norte 24 Noroeste 0 -- -- 74
2021-02-02 22:00:00 18.3 12 Norte 27 Norte 0 -- -- 76
2021-02-02 21:00:00 18.2 12 Norte 21 Nordeste 0 -- -- 78
2021-02-02 20:00:00 18 10 Norte 21 Norte 0 -- -- 79
2021-02-02 19:00:00 18.3 12 Norte 21 Norte 0 -- -- 77
2021-02-02 18:00:00 18.9 11 Nordeste 17 Nordeste 0 -- -- 75
2021-02-02 17:00:00 19.4 11 Nordeste 19 Este 0 -- -- 72
2021-02-02 16:00:00 19.8 12 Nordeste 19 Este 0 -- -- 71
2021-02-02 15:00:00 20.1 10 Norte 18 Este 0 -- -- 69
2021-02-02 14:00:00 20.1 13 Nordeste 19 Nordeste 0 -- -- 68
2021-02-02 13:00:00 19.8 10 Nordeste 17 Norte 0 -- -- 69
2021-02-02 12:00:00 19.2 9 Nordeste 14 Este 0 -- -- 71
2021-02-02 11:00:00 19 9 Nordeste 15 Norte 0 -- -- 73
2021-02-02 10:00:00 18.5 7 Norte 15 Nordeste 0 -- -- 75
2021-02-02 09:00:00 17.9 5 Norte 21 Norte 0 -- -- 77
2021-02-02 08:00:00 17.8 11 Norte 20 Norte 0 -- -- 79
2021-02-02 07:00:00 17.5 7 Norte 18 Norte 0 -- -- 79
2021-02-02 06:00:00 17.5 9 Norte 24 Norte 0 -- -- 81
2021-02-02 05:00:00 17.6 13 Norte 24 Norte 0 -- -- 79
2021-02-02 04:00:00 17.8 13 Norte 30 Norte 0 -- -- 79
2021-02-02 03:00:00 18 17 Norte 26 Norte 0 -- -- 77
2021-02-02 02:00:00 18.2 12 Norte 27 Norte 0 -- -- 77
2021-02-02 01:00:00 18.4 14 Norte 24 Norte 0 -- -- 79
2021-02-02 00:00:00 18.6 14 Norte 26 Norte 0 -- -- 80
2021-02-01 23:00:00 18.6 15 Norte 28 Norte 0 -- -- 81
2021-02-01 22:00:00 18.7 17 Norte 31 Norte 0 -- -- 81
2021-02-01 21:00:00 18.8 15 Norte 30 Norte 0 -- -- 80
2021-02-01 20:00:00 19 17 Norte 31 Norte 0 -- -- 79
2021-02-01 19:00:00 19.2 17 Norte 31 Norte 0 -- -- 77
2021-02-01 18:00:00 20 18 Norte 31 Norte 0 -- -- 74
2021-02-01 17:00:00 20.8 23 Norte 34 Norte 0 -- -- 70
2021-02-01 16:00:00 21.7 17 Norte 31 Noroeste 0 -- -- 63
2021-02-01 15:00:00 22 15 Norte 30 Norte 0 -- -- 63
2021-02-01 14:00:00 22.1 18 Norte 30 Norte 0 -- -- 62
2021-02-01 13:00:00 22.3 18 Norte 30 Noroeste 0 -- -- 59
2021-02-01 12:00:00 21.4 16 Norte 27 Noroeste 0 -- -- 67
2021-02-01 11:00:00 21 14 Norte 32 Noroeste 0 -- -- 70
2021-02-01 10:00:00 20.1 18 Norte 35 Norte 0 -- -- 69
2021-02-01 09:00:00 19 15 Norte 26 Norte 0 -- -- 74
2021-02-01 08:00:00 18 14 Noroeste 29 Norte 0 -- -- 77
2021-02-01 07:00:00 18 17 Norte 30 Norte 0 -- -- 75
2021-02-01 06:00:00 17.9 15 Noroeste 29 Noroeste 0 -- -- 73
2021-02-01 05:00:00 18.3 13 Norte 28 Noroeste 0 -- -- 69
2021-02-01 04:00:00 18.5 14 Norte 28 Noroeste 0 -- -- 69
2021-02-01 03:00:00 17.9 12 Norte 26 Norte 0 -- -- 74
2021-02-01 02:00:00 17.9 17 Noroeste 34 Noroeste 0 -- -- 77
2021-02-01 01:00:00 17.8 15 Norte 30 Norte 0 -- -- 77
2021-02-01 00:00:00 17.7 15 Noroeste 30 Noroeste 0 -- -- 78
2021-01-31 23:00:00 17.8 15 Norte 31 Noroeste 0 -- -- 78
2021-01-31 22:00:00 17.8 17 Noroeste 31 Norte 0 -- -- 77
2021-01-31 21:00:00 18 16 Norte 33 Noroeste 0 -- -- 78
2021-01-31 20:00:00 18.2 19 Norte 39 Norte 0 -- -- 77
2021-01-31 19:00:00 18.5 20 Norte 44 Norte 0 -- -- 75
2021-01-31 18:00:00 19.3 23 Norte 48 Norte 0 -- -- 70
2021-01-31 17:00:00 20.1 26 Norte 46 Norte 0 -- -- 66
2021-01-31 16:00:00 21.1 23 Norte 42 Norte 0 -- -- 63
2021-01-31 15:00:00 21.5 23 Norte 44 Norte 0 -- -- 60
2021-01-31 14:00:00 21.1 25 Norte 42 Norte 0 -- -- 64
2021-01-31 13:00:00 21.4 19 Norte 37 Norte 0 -- -- 63
2021-01-31 12:00:00 20.9 19 Norte 38 Norte 0 -- -- 66
2021-01-31 11:00:00 20.1 21 Norte 35 Norte 0 -- -- 70
2021-01-31 10:00:00 19.1 18 Noroeste 37 Norte 0 -- -- 79
2021-01-31 09:00:00 17.7 17 Noroeste 26 Noroeste 0 -- -- 84
2021-01-31 08:00:00 16.9 13 Norte 24 Noroeste 0 -- -- 90
2021-01-31 07:00:00 16.9 13 Norte 30 Norte 0.2 -- -- 92
2021-01-31 06:00:00 17 11 Noroeste 29 Norte 0.2 -- -- 92
2021-01-31 05:00:00 16.8 10 Norte 29 Noroeste 0.2 -- -- 92
2021-01-31 04:00:00 16.9 12 Noroeste 26 Norte 0.2 -- -- 92
2021-01-31 03:00:00 16.9 14 Noroeste 25 Noroeste 0.4 -- -- 90
2021-01-31 02:00:00 17.8 18 Norte 36 Norte 0 -- -- 81
2021-01-31 01:00:00 18.2 21 Norte 37 Norte 0 -- -- 72
2021-01-31 00:00:00 18.2 21 Norte 35 Norte 0 -- -- 72
2021-01-30 23:00:00 18.2 21 Norte 36 Norte 0 -- -- 72
2021-01-30 22:00:00 17.9 21 Norte 36 Norte 0 -- -- 72
2021-01-30 21:00:00 17.6 16 Norte 36 Norte 0 -- -- 75
2021-01-30 20:00:00 17.9 16 Norte 34 Noroeste 0 -- -- 73
2021-01-30 19:00:00 18.4 17 Norte 39 Norte 0 -- -- 71
2021-01-30 18:00:00 19.2 17 Norte 34 Norte 0 -- -- 68
2021-01-30 17:00:00 20 21 Norte 37 Norte 0 -- -- 66
2021-01-30 16:00:00 19.8 23 Norte 38 Nordeste 0 -- -- 66
2021-01-30 15:00:00 20.3 23 Norte 37 Norte 0 -- -- 66
2021-01-30 14:00:00 20.5 20 Norte 36 Norte 0 -- -- 66
2021-01-30 13:00:00 20.5 21 Norte 36 Norte 0 -- -- 65
2021-01-30 12:00:00 20.7 18 Norte 34 Norte 0 -- -- 64
2021-01-30 11:00:00 20.4 18 Norte 32 Norte 0 -- -- 66
2021-01-30 10:00:00 19.1 18 Norte 31 Norte 0 -- -- 72
2021-01-30 09:00:00 17.9 15 Norte 28 Noroeste 0 -- -- 81
2021-01-30 08:00:00 16.1 9 Noroeste 19 Norte 0 -- -- 89
2021-01-30 07:00:00 14.8 7 Noroeste 11 Noroeste 0 -- -- 87
2021-01-30 06:00:00 16.5 8 Noroeste 17 Norte 0 -- -- 81
2021-01-30 05:00:00 17.8 11 Norte 22 Norte 0 -- -- 78
2021-01-30 04:00:00 18.4 15 Norte 28 Norte 0 -- -- 77
2021-01-30 03:00:00 18.5 17 Norte 41 Norte 0 -- -- 79
2021-01-30 02:00:00 18.6 25 Norte 41 Norte 0 -- -- 82
2021-01-30 01:00:00 18.7 21 Norte 39 Norte 0 -- -- 87
2021-01-30 00:00:00 18.5 10 Norte 21 Noroeste 0 -- -- 90